Time;durP1;ratioP1;P1;durP2;ratioP2;P2;SDS_P1;SDS_P2;PMS_P1;PMS_P2;Temp;Humidity;BMP_temperature;BMP_pressure;BME280_temperature;BME280_humidity;BME280_pressure;Samples;Min_cycle;Max_cycle;Signal;HPM_P1;HPM_P2
2021/05/07 00:00:05;;;;;;;5.57;3.80;;;;;;;;;;5083844;28;20365;-73
2021/05/07 00:02:32;;;;;;;4.60;3.33;;;;;;;;;;5084351;28;20608;-73
2021/05/07 00:04:59;;;;;;;3.70;3.00;;;;;;;;;;5095111;28;20719;-73
2021/05/07 00:07:28;;;;;;;3.50;3.17;;;;;;;;;;5094393;28;20208;-73
2021/05/07 00:09:57;;;;;;;3.63;2.80;;;;;;;;;;5090048;28;20287;-73
2021/05/07 00:12:24;;;;;;;3.13;2.20;;;;;;;;;;5089824;28;20252;-73
2021/05/07 00:14:51;;;;;;;3.83;2.40;;;;;;;;;;5098823;28;20217;-73
2021/05/07 00:17:18;;;;;;;3.10;2.30;;;;;;;;;;5090599;28;20285;-73
2021/05/07 00:19:45;;;;;;;3.80;2.20;;;;;;;;;;5097290;28;20233;-73
2021/05/07 00:22:12;;;;;;;1.80;1.57;;;;;;;;;;5101143;28;20288;-73
2021/05/07 00:24:40;;;;;;;1.37;1.27;;;;;;;;;;5089285;28;20701;-73
2021/05/07 00:27:08;;;;;;;1.40;1.30;;;;;;;;;;5098595;28;20217;-73
2021/05/07 00:29:35;;;;;;;2.00;1.20;;;;;;;;;;5096277;28;20197;-73
2021/05/07 00:32:02;;;;;;;2.07;1.53;;;;;;;;;;5095059;28;20347;-74
2021/05/07 00:34:29;;;;;;;1.77;1.30;;;;;;;;;;5091008;28;20243;-73
2021/05/07 00:36:56;;;;;;;3.27;1.70;;;;;;;;;;5100948;28;20292;-73
2021/05/07 00:39:23;;;;;;;4.20;2.37;;;;;;;;;;5098181;28;20284;-73
2021/05/07 00:41:50;;;;;;;3.63;2.33;;;;;;;;;;5093441;28;20202;-73
2021/05/07 00:44:18;;;;;;;3.77;2.60;;;;;;;;;;5087404;28;20635;-74
2021/05/07 00:46:46;;;;;;;3.57;2.30;;;;;;;;;;5100350;28;20205;-73
2021/05/07 00:49:13;;;;;;;2.80;1.90;;;;;;;;;;5099708;28;20205;-73
2021/05/07 00:51:41;;;;;;;1.90;1.70;;;;;;;;;;5100791;28;20218;-73
2021/05/07 00:54:08;;;;;;;2.07;1.73;;;;;;;;;;5099307;28;20308;-74
2021/05/07 00:56:35;;;;;;;1.90;1.63;;;;;;;;;;5099768;28;20217;-74
2021/05/07 00:59:02;;;;;;;1.73;1.30;;;;;;;;;;5099098;28;20237;-73
2021/05/07 01:01:31;;;;;;;2.00;1.37;;;;;;;;;;5100574;28;20293;-74
2021/05/07 01:03:59;;;;;;;2.63;1.03;;;;;;;;;;5086306;28;20204;-74
2021/05/07 01:06:26;;;;;;;1.07;0.97;;;;;;;;;;5086141;28;20198;-74
2021/05/07 01:08:53;;;;;;;1.30;1.20;;;;;;;;;;5085868;28;20280;-74
2021/05/07 01:11:20;;;;;;;1.87;1.20;;;;;;;;;;5098444;28;20281;-74
2021/05/07 01:13:47;;;;;;;2.33;1.07;;;;;;;;;;5097409;28;20280;-74
2021/05/07 01:16:14;;;;;;;1.33;0.97;;;;;;;;;;5086588;28;20325;-73
2021/05/07 01:18:42;;;;;;;1.20;0.80;;;;;;;;;;5099261;28;20227;-72
2021/05/07 01:21:10;;;;;;;1.77;1.00;;;;;;;;;;5086398;28;20202;-74
2021/05/07 01:23:38;;;;;;;0.80;0.70;;;;;;;;;;5099799;28;20216;-73
2021/05/07 01:26:04;;;;;;;1.70;0.90;;;;;;;;;;5099136;28;20767;-73
2021/05/07 01:28:33;;;;;;;0.90;0.90;;;;;;;;;;5099664;28;20292;-73
2021/05/07 01:31:00;;;;;;;0.70;0.70;;;;;;;;;;5089084;28;20298;-74
2021/05/07 01:33:27;;;;;;;0.70;0.70;;;;;;;;;;5092691;28;20253;-73
2021/05/07 01:35:54;;;;;;;2.30;0.80;;;;;;;;;;5093968;28;20304;-74
2021/05/07 01:38:22;;;;;;;0.90;0.90;;;;;;;;;;5095868;28;20216;-73
2021/05/07 01:40:50;;;;;;;1.87;0.70;;;;;;;;;;5085625;28;20202;-73
2021/05/07 01:43:17;;;;;;;1.10;0.80;;;;;;;;;;5097690;28;20261;-73
2021/05/07 01:45:45;;;;;;;1.00;0.90;;;;;;;;;;5099503;28;20263;-74
2021/05/07 01:48:12;;;;;;;1.60;1.10;;;;;;;;;;5092713;28;20230;-74
2021/05/07 01:50:41;;;;;;;1.57;0.80;;;;;;;;;;5084091;28;20205;-74
2021/05/07 01:53:08;;;;;;;0.70;0.70;;;;;;;;;;5094518;28;20249;-74
2021/05/07 01:55:38;;;;;;;0.70;0.70;;;;;;;;;;5098173;28;20217;-73
2021/05/07 01:58:05;;;;;;;0.80;0.80;;;;;;;;;;5099164;28;20276;-73
2021/05/07 02:00:32;;;;;;;2.83;1.30;;;;;;;;;;5098051;28;20202;-73
2021/05/07 02:03:01;;;;;;;1.30;1.10;;;;;;;;;;5098967;28;20708;-73
2021/05/07 02:05:31;;;;;;;1.00;1.00;;;;;;;;;;5098411;28;20221;-73
2021/05/07 02:07:59;;;;;;;1.67;1.17;;;;;;;;;;5092873;28;20203;-73
2021/05/07 02:10:27;;;;;;;1.10;1.00;;;;;;;;;;5089978;28;20232;-74
2021/05/07 02:12:55;;;;;;;1.97;1.20;;;;;;;;;;5087837;28;20308;-74
2021/05/07 02:15:23;;;;;;;1.03;0.90;;;;;;;;;;5098979;28;20253;-73
2021/05/07 02:17:50;;;;;;;0.70;0.70;;;;;;;;;;5098020;28;20707;-73
2021/05/07 02:20:19;;;;;;;2.10;0.70;;;;;;;;;;5079851;28;20662;-73
2021/05/07 02:22:47;;;;;;;1.83;0.90;;;;;;;;;;5091187;28;20209;-73
2021/05/07 02:25:16;;;;;;;0.80;0.80;;;;;;;;;;5097475;28;20731;-73
2021/05/07 02:27:43;;;;;;;1.50;0.90;;;;;;;;;;5098740;28;20243;-73
2021/05/07 02:30:12;;;;;;;1.87;1.00;;;;;;;;;;5098186;28;20293;-73
2021/05/07 02:32:39;;;;;;;1.47;1.10;;;;;;;;;;5098422;28;20293;-73
2021/05/07 02:35:07;;;;;;;1.70;1.10;;;;;;;;;;5096299;28;20334;-73
2021/05/07 02:37:34;;;;;;;1.90;0.97;;;;;;;;;;5096211;28;20231;-73
2021/05/07 02:40:01;;;;;;;1.63;1.00;;;;;;;;;;5094873;28;20233;-73
2021/05/07 02:42:28;;;;;;;2.83;1.00;;;;;;;;;;5088865;28;20236;-74
2021/05/07 02:44:55;;;;;;;1.53;1.00;;;;;;;;;;5094841;28;20213;-73
2021/05/07 02:47:23;;;;;;;0.80;0.80;;;;;;;;;;5098464;28;20284;-73
2021/05/07 02:49:50;;;;;;;0.83;0.80;;;;;;;;;;5094629;28;20564;-73
2021/05/07 02:52:17;;;;;;;2.53;1.00;;;;;;;;;;5084087;28;20733;-73
2021/05/07 02:54:45;;;;;;;0.93;0.83;;;;;;;;;;5089335;28;20241;-73
2021/05/07 02:57:12;;;;;;;1.20;1.10;;;;;;;;;;5093575;28;20661;-73
2021/05/07 02:59:39;;;;;;;0.80;0.70;;;;;;;;;;5088245;28;20285;-73
2021/05/07 03:02:06;;;;;;;0.63;0.53;;;;;;;;;;5095218;28;20270;-73
2021/05/07 03:04:34;;;;;;;1.03;0.90;;;;;;;;;;5086882;28;20244;-73
2021/05/07 03:07:01;;;;;;;2.93;0.63;;;;;;;;;;5084016;28;20236;-73
2021/05/07 03:09:28;;;;;;;0.60;0.60;;;;;;;;;;5096506;28;20253;-73
2021/05/07 03:11:55;;;;;;;1.00;0.80;;;;;;;;;;5096495;28;20233;-73
2021/05/07 03:14:22;;;;;;;0.67;0.67;;;;;;;;;;5097910;28;20225;-73
2021/05/07 03:16:50;;;;;;;0.60;0.60;;;;;;;;;;5096517;28;20205;-73
2021/05/07 03:19:17;;;;;;;1.07;0.63;;;;;;;;;;5085660;28;20733;-73
2021/05/07 03:21:45;;;;;;;1.13;0.60;;;;;;;;;;5096901;28;20205;-73
2021/05/07 03:24:13;;;;;;;0.90;0.70;;;;;;;;;;5097721;28;20236;-73
2021/05/07 03:26:40;;;;;;;1.27;0.60;;;;;;;;;;5097018;28;20309;-73
2021/05/07 03:29:07;;;;;;;1.47;0.90;;;;;;;;;;5097998;28;20202;-73
2021/05/07 03:31:35;;;;;;;2.30;0.80;;;;;;;;;;5083898;28;20217;-73
2021/05/07 03:34:02;;;;;;;0.87;0.73;;;;;;;;;;5097934;28;20256;-73
2021/05/07 03:36:29;;;;;;;1.63;0.80;;;;;;;;;;5091886;28;20667;-73
2021/05/07 03:38:57;;;;;;;0.80;0.80;;;;;;;;;;5084140;28;20300;-73
2021/05/07 03:41:24;;;;;;;1.07;0.97;;;;;;;;;;5097321;28;20239;-73
2021/05/07 03:43:51;;;;;;;1.60;0.90;;;;;;;;;;5096967;28;20261;-73
2021/05/07 03:46:18;;;;;;;1.23;0.90;;;;;;;;;;5097362;28;20394;-73
2021/05/07 03:48:47;;;;;;;1.90;1.00;;;;;;;;;;5084858;28;20213;-73
2021/05/07 03:51:14;;;;;;;0.80;0.80;;;;;;;;;;5090177;28;20229;-73
2021/05/07 03:53:42;;;;;;;0.93;0.90;;;;;;;;;;5093012;28;20219;-73
2021/05/07 03:56:09;;;;;;;0.70;0.70;;;;;;;;;;5087955;28;20647;-73
2021/05/07 03:58:36;;;;;;;2.03;1.10;;;;;;;;;;5094158;28;20237;-73
2021/05/07 04:01:07;;;;;;;2.20;0.90;;;;;;;;;;5077219;28;20241;-73
2021/05/07 04:03:34;;;;;;;1.30;0.60;;;;;;;;;;5096825;28;20288;-73
2021/05/07 04:06:01;;;;;;;0.97;0.93;;;;;;;;;;5096440;28;20260;-73
2021/05/07 04:08:30;;;;;;;0.90;0.90;;;;;;;;;;5088887;28;20221;-73
2021/05/07 04:11:02;;;;;;;0.70;0.70;;;;;;;;;;5092909;28;20354;-73
2021/05/07 04:13:34;;;;;;;0.67;0.67;;;;;;;;;;5079520;28;20253;-73
2021/05/07 04:16:01;;;;;;;1.00;0.77;;;;;;;;;;5095661;28;20226;-73
2021/05/07 04:18:28;;;;;;;1.37;0.80;;;;;;;;;;5097326;28;20241;-73
2021/05/07 04:20:55;;;;;;;1.77;1.03;;;;;;;;;;5088788;28;20644;-73
2021/05/07 04:23:23;;;;;;;1.80;1.10;;;;;;;;;;5086931;28;20231;-73
2021/05/07 04:25:51;;;;;;;1.73;0.90;;;;;;;;;;5096668;28;20248;-73
2021/05/07 04:28:18;;;;;;;2.73;1.07;;;;;;;;;;5095626;28;20217;-73
2021/05/07 04:30:46;;;;;;;1.20;1.00;;;;;;;;;;5093482;28;20261;-73
2021/05/07 04:33:13;;;;;;;0.97;0.97;;;;;;;;;;5098241;28;20225;-74
2021/05/07 04:35:40;;;;;;;1.27;1.17;;;;;;;;;;5098340;28;20323;-73
2021/05/07 04:38:07;;;;;;;0.80;0.80;;;;;;;;;;5098186;28;20292;-73
2021/05/07 04:40:35;;;;;;;1.13;1.07;;;;;;;;;;5092409;28;20231;-73
2021/05/07 04:43:03;;;;;;;1.10;1.10;;;;;;;;;;5079841;28;20232;-73
2021/05/07 04:45:30;;;;;;;1.23;1.20;;;;;;;;;;5093217;28;20316;-73
2021/05/07 04:47:58;;;;;;;1.33;0.90;;;;;;;;;;5101427;28;20201;-72
2021/05/07 04:50:25;;;;;;;0.93;0.93;;;;;;;;;;5092344;28;20228;-72
2021/05/07 04:52:52;;;;;;;1.90;1.10;;;;;;;;;;5092788;28;20197;-73
2021/05/07 04:55:19;;;;;;;1.00;1.00;;;;;;;;;;5099761;28;20221;-75
2021/05/07 04:57:47;;;;;;;1.20;1.10;;;;;;;;;;5100950;28;20206;-73
2021/05/07 05:00:14;;;;;;;1.17;1.17;;;;;;;;;;5094778;28;20285;-74
2021/05/07 05:02:41;;;;;;;1.20;0.90;;;;;;;;;;5092661;28;20244;-72
2021/05/07 05:05:10;;;;;;;1.70;1.00;;;;;;;;;;5094948;28;20592;-74
2021/05/07 05:07:37;;;;;;;1.60;1.10;;;;;;;;;;5090497;28;20732;-69
2021/05/07 05:10:04;;;;;;;1.17;1.07;;;;;;;;;;5096207;28;20312;-75
2021/05/07 05:12:31;;;;;;;1.40;1.23;;;;;;;;;;5098225;28;20297;-72
2021/05/07 05:14:58;;;;;;;1.63;1.27;;;;;;;;;;5099192;28;20312;-76
2021/05/07 05:17:25;;;;;;;3.60;1.37;;;;;;;;;;5101359;28;20240;-75
2021/05/07 05:19:52;;;;;;;1.23;1.13;;;;;;;;;;5096309;28;20201;-75
2021/05/07 05:22:20;;;;;;;3.43;1.30;;;;;;;;;;5096507;28;20288;-75
2021/05/07 05:24:48;;;;;;;1.83;1.23;;;;;;;;;;5098931;28;20278;-75
2021/05/07 05:27:15;;;;;;;1.10;1.00;;;;;;;;;;5099891;28;20223;-75
2021/05/07 05:29:42;;;;;;;1.43;1.33;;;;;;;;;;5098543;28;20288;-74
2021/05/07 05:32:09;;;;;;;1.23;0.90;;;;;;;;;;5089260;28;20297;-72
2021/05/07 05:34:36;;;;;;;0.80;0.80;;;;;;;;;;5096208;28;20226;-74
2021/05/07 05:37:04;;;;;;;1.70;1.03;;;;;;;;;;5091073;28;20202;-73
2021/05/07 05:39:32;;;;;;;1.03;0.93;;;;;;;;;;5086914;28;20670;-74
2021/05/07 05:42:14;;;;;;;1.07;0.83;;;;;;;;;;5096130;28;20205;-74
2021/05/07 05:44:41;;;;;;;1.93;0.90;;;;;;;;;;5084830;28;20271;-73
2021/05/07 05:47:08;;;;;;;3.00;0.70;;;;;;;;;;5099468;28;20236;-74
2021/05/07 05:49:36;;;;;;;3.97;2.20;;;;;;;;;;5098779;28;20293;-76
2021/05/07 05:52:03;;;;;;;6.40;1.10;;;;;;;;;;5102692;28;20264;-73
2021/05/07 05:54:30;;;;;;;2.20;1.40;;;;;;;;;;5107392;28;20293;-73
2021/05/07 05:56:58;;;;;;;3.47;0.97;;;;;;;;;;5098634;28;20266;-74
2021/05/07 05:59:28;;;;;;;1.47;0.97;;;;;;;;;;5089393;28;20336;-75
2021/05/07 06:01:55;;;;;;;1.93;1.30;;;;;;;;;;5089801;28;20241;-75
2021/05/07 06:04:22;;;;;;;1.57;1.30;;;;;;;;;;5097067;28;21127;-75
2021/05/07 06:06:49;;;;;;;1.30;1.10;;;;;;;;;;5098799;28;20730;-75
2021/05/07 06:09:16;;;;;;;2.30;1.30;;;;;;;;;;5097859;28;20270;-75
2021/05/07 06:11:43;;;;;;;2.07;0.90;;;;;;;;;;5086151;28;20279;-75
2021/05/07 06:14:11;;;;;;;3.70;1.10;;;;;;;;;;5097655;28;20693;-75
2021/05/07 06:16:38;;;;;;;2.27;1.30;;;;;;;;;;5099472;28;20209;-75
2021/05/07 06:19:06;;;;;;;2.57;1.00;;;;;;;;;;5087758;28;20204;-75
2021/05/07 06:21:33;;;;;;;3.70;1.10;;;;;;;;;;5099028;28;20205;-75
2021/05/07 06:24:00;;;;;;;4.13;1.20;;;;;;;;;;5099172;28;20208;-75
2021/05/07 06:26:28;;;;;;;2.43;1.30;;;;;;;;;;5096926;28;20209;-75
2021/05/07 06:28:55;;;;;;;2.87;1.13;;;;;;;;;;5097952;28;20206;-75
2021/05/07 06:31:23;;;;;;;3.83;1.60;;;;;;;;;;5091850;28;20213;-75
2021/05/07 06:33:50;;;;;;;1.83;1.63;;;;;;;;;;5098663;28;20264;-74
2021/05/07 06:36:18;;;;;;;4.30;1.90;;;;;;;;;;5098071;28;20222;-75
2021/05/07 06:38:45;;;;;;;2.60;1.73;;;;;;;;;;5097907;28;20262;-74
2021/05/07 06:41:12;;;;;;;2.30;1.57;;;;;;;;;;5098363;28;20219;-74
2021/05/07 06:43:39;;;;;;;2.40;1.60;;;;;;;;;;5094806;28;20202;-76
2021/05/07 06:46:06;;;;;;;1.77;1.47;;;;;;;;;;5092173;28;20230;-75
2021/05/07 06:48:34;;;;;;;2.43;1.80;;;;;;;;;;5098313;28;20582;-75
2021/05/07 06:51:01;;;;;;;2.17;1.63;;;;;;;;;;5098251;28;20672;-75
2021/05/07 06:53:33;;;;;;;6.10;1.80;;;;;;;;;;5097676;28;20684;-75
2021/05/07 06:56:00;;;;;;;3.33;2.10;;;;;;;;;;5095345;28;20260;-74
2021/05/07 06:58:40;;;;;;;3.60;2.50;;;;;;;;;;5099308;28;20201;-74
2021/05/07 07:01:08;;;;;;;3.23;2.37;;;;;;;;;;5097835;28;20205;-74
2021/05/07 07:03:36;;;;;;;4.63;2.57;;;;;;;;;;5097846;28;20213;-74
2021/05/07 07:06:03;;;;;;;3.30;2.07;;;;;;;;;;5098033;28;20229;-74
2021/05/07 07:08:30;;;;;;;2.57;1.70;;;;;;;;;;5097484;28;20233;-74
2021/05/07 07:10:58;;;;;;;2.57;1.37;;;;;;;;;;5097827;28;20205;-74
2021/05/07 07:13:25;;;;;;;4.67;1.70;;;;;;;;;;5092662;28;20205;-73
2021/05/07 07:15:52;;;;;;;1.17;1.10;;;;;;;;;;5097974;28;20305;-74
2021/05/07 07:18:19;;;;;;;1.57;1.00;;;;;;;;;;5088688;28;20206;-74
2021/05/07 07:20:48;;;;;;;1.40;0.90;;;;;;;;;;5097714;28;20548;-74
2021/05/07 07:23:16;;;;;;;1.53;1.33;;;;;;;;;;5097607;28;20205;-74
2021/05/07 07:25:43;;;;;;;2.37;1.10;;;;;;;;;;5097501;28;20324;-74
2021/05/07 07:28:11;;;;;;;1.27;0.90;;;;;;;;;;5099891;28;20648;-73
2021/05/07 07:30:38;;;;;;;1.83;1.70;;;;;;;;;;5105402;28;20220;-72
2021/05/07 07:33:05;;;;;;;17.10;12.30;;;;;;;;;;5103680;28;20292;-74
2021/05/07 07:35:32;;;;;;;361.03;212.80;;;;;;;;;;5103559;28;20259;-72
2021/05/07 07:38:00;;;;;;;20.30;13.03;;;;;;;;;;5102295;28;20562;-71
2021/05/07 07:40:27;;;;;;;4.13;2.47;;;;;;;;;;5102771;28;20197;-72
2021/05/07 07:42:54;;;;;;;1.27;1.17;;;;;;;;;;5097108;28;20200;-72
2021/05/07 07:45:22;;;;;;;3.07;1.20;;;;;;;;;;5101399;28;20213;-72
2021/05/07 07:47:49;;;;;;;1.40;1.30;;;;;;;;;;5085691;28;20233;-70
2021/05/07 07:50:16;;;;;;;1.40;0.80;;;;;;;;;;5084921;28;20201;-69
2021/05/07 07:52:43;;;;;;;0.93;0.87;;;;;;;;;;5078844;28;20611;-70
2021/05/07 07:55:12;;;;;;;1.10;1.10;;;;;;;;;;5085394;28;20287;-72
2021/05/07 07:57:41;;;;;;;2.40;1.27;;;;;;;;;;5102021;28;20231;-70
2021/05/07 08:00:09;;;;;;;1.80;1.20;;;;;;;;;;5104269;28;20202;-71
2021/05/07 08:02:36;;;;;;;2.30;1.23;;;;;;;;;;5104131;28;20242;-71
2021/05/07 08:05:03;;;;;;;1.30;1.00;;;;;;;;;;5104227;28;20542;-71
2021/05/07 08:07:30;;;;;;;1.77;1.10;;;;;;;;;;5101108;28;20208;-72
2021/05/07 08:09:57;;;;;;;1.93;0.90;;;;;;;;;;5108154;28;20228;-69
2021/05/07 08:12:25;;;;;;;2.73;1.03;;;;;;;;;;5108062;28;20246;-70
2021/05/07 08:14:52;;;;;;;2.47;1.00;;;;;;;;;;5109841;28;20278;-71
2021/05/07 08:17:20;;;;;;;2.30;0.90;;;;;;;;;;5108488;28;20207;-70
2021/05/07 08:19:49;;;;;;;1.70;0.93;;;;;;;;;;5100595;28;20297;-70
2021/05/07 08:22:16;;;;;;;2.03;0.97;;;;;;;;;;5099159;28;20205;-70
2021/05/07 08:24:44;;;;;;;2.00;0.90;;;;;;;;;;5089463;28;20252;-70
2021/05/07 08:27:11;;;;;;;1.63;1.10;;;;;;;;;;5099312;28;20542;-70
2021/05/07 08:29:39;;;;;;;1.03;0.90;;;;;;;;;;5086284;28;20754;-70
2021/05/07 08:32:06;;;;;;;1.80;0.60;;;;;;;;;;5108493;28;20284;-70
2021/05/07 08:34:34;;;;;;;1.90;0.70;;;;;;;;;;5106674;28;20221;-70
2021/05/07 08:37:01;;;;;;;1.90;0.70;;;;;;;;;;5107295;28;20194;-70
2021/05/07 08:39:33;;;;;;;1.43;0.67;;;;;;;;;;5097985;28;20206;-70
2021/05/07 08:42:00;;;;;;;2.10;0.70;;;;;;;;;;5085388;28;20592;-70
2021/05/07 08:44:27;;;;;;;1.53;0.67;;;;;;;;;;5081564;28;20218;-71
2021/05/07 08:46:55;;;;;;;2.33;0.60;;;;;;;;;;5101338;28;20284;-70
2021/05/07 08:49:24;;;;;;;2.17;0.70;;;;;;;;;;5099704;28;20262;-71
2021/05/07 08:51:51;;;;;;;2.33;0.90;;;;;;;;;;5085804;28;20293;-71
2021/05/07 08:54:25;;;;;;;2.23;1.00;;;;;;;;;;5099622;28;20230;-71
2021/05/07 08:56:51;;;;;;;1.43;0.70;;;;;;;;;;5087363;28;20324;-71
2021/05/07 08:59:20;;;;;;;0.60;0.47;;;;;;;;;;5097620;28;20205;-71
2021/05/07 09:01:47;;;;;;;2.30;0.60;;;;;;;;;;5089062;28;20750;-71
2021/05/07 09:04:16;;;;;;;1.97;0.90;;;;;;;;;;5104278;28;20243;-71
2021/05/07 09:06:50;;;;;;;1.97;0.80;;;;;;;;;;5107959;28;20292;-71
2021/05/07 09:09:22;;;;;;;3.90;0.60;;;;;;;;;;5104782;28;20232;-71
2021/05/07 09:11:50;;;;;;;1.27;0.53;;;;;;;;;;5103084;28;20293;-71
2021/05/07 09:14:17;;;;;;;0.50;0.50;;;;;;;;;;5091728;28;20688;-71
2021/05/07 09:16:52;;;;;;;2.77;0.80;;;;;;;;;;5085417;28;20269;-71
2021/05/07 09:19:20;;;;;;;3.30;0.97;;;;;;;;;;5109801;28;20197;-71
2021/05/07 09:21:48;;;;;;;3.93;0.97;;;;;;;;;;5087818;28;20329;-71
2021/05/07 09:24:15;;;;;;;2.67;0.90;;;;;;;;;;5082484;28;20536;-69
2021/05/07 09:26:49;;;;;;;3.50;1.30;;;;;;;;;;5083212;28;20285;-71
2021/05/07 09:29:20;;;;;;;2.10;1.10;;;;;;;;;;5091900;28;20212;-72
2021/05/07 09:31:49;;;;;;;2.43;1.20;;;;;;;;;;5082130;28;20214;-71
2021/05/07 09:34:17;;;;;;;4.20;0.87;;;;;;;;;;5079657;28;20359;-71
2021/05/07 09:36:45;;;;;;;4.27;1.27;;;;;;;;;;5080188;28;20741;-71
2021/05/07 09:39:12;;;;;;;3.80;2.10;;;;;;;;;;5080775;28;20285;-71
2021/05/07 09:41:46;;;;;;;2.23;0.80;;;;;;;;;;5081010;28;20328;-71
2021/05/07 09:44:17;;;;;;;3.17;0.80;;;;;;;;;;5079121;28;20856;-70
2021/05/07 09:46:45;;;;;;;5.67;1.70;;;;;;;;;;5100730;28;20572;-71
2021/05/07 09:49:21;;;;;;;3.40;1.40;;;;;;;;;;5100443;28;20209;-71
2021/05/07 09:51:50;;;;;;;2.83;0.60;;;;;;;;;;5095935;28;20211;-70
2021/05/07 09:54:17;;;;;;;3.43;0.87;;;;;;;;;;5088582;28;20218;-70
2021/05/07 09:56:45;;;;;;;1.67;0.60;;;;;;;;;;5105287;28;20205;-70
2021/05/07 09:59:12;;;;;;;1.63;0.60;;;;;;;;;;5104377;28;20281;-70
2021/05/07 10:01:42;;;;;;;1.70;0.83;;;;;;;;;;5091355;28;20206;-70
2021/05/07 10:04:10;;;;;;;1.90;0.70;;;;;;;;;;5084507;28;20237;-70
2021/05/07 10:06:37;;;;;;;1.07;0.60;;;;;;;;;;5083723;28;20285;-70
2021/05/07 10:09:07;;;;;;;2.43;0.83;;;;;;;;;;5093402;28;20638;-70
2021/05/07 10:11:36;;;;;;;2.17;0.67;;;;;;;;;;5092342;28;20308;-70
2021/05/07 10:14:09;;;;;;;2.00;0.60;;;;;;;;;;5084322;28;20198;-71
2021/05/07 10:16:36;;;;;;;1.67;0.70;;;;;;;;;;5092400;28;20204;-71
2021/05/07 10:19:04;;;;;;;3.23;0.97;;;;;;;;;;5090109;28;20197;-70
2021/05/07 10:21:38;;;;;;;1.50;0.73;;;;;;;;;;5107612;28;20226;-71
2021/05/07 10:24:08;;;;;;;1.43;1.00;;;;;;;;;;5101657;28;20197;-70
2021/05/07 10:26:37;;;;;;;1.80;0.93;;;;;;;;;;5098203;28;20714;-71
2021/05/07 10:29:14;;;;;;;1.97;0.60;;;;;;;;;;5108821;28;20245;-71
2021/05/07 10:31:45;;;;;;;4.13;1.17;;;;;;;;;;5104669;28;20284;-71
2021/05/07 10:34:12;;;;;;;2.83;1.20;;;;;;;;;;5099171;28;20252;-71
2021/05/07 10:36:56;;;;;;;1.50;1.00;;;;;;;;;;5095636;28;20215;-71
2021/05/07 10:39:25;;;;;;;2.57;0.60;;;;;;;;;;5106192;28;20280;-70
2021/05/07 10:41:54;;;;;;;1.80;0.90;;;;;;;;;;5104654;28;20204;-70
2021/05/07 10:44:22;;;;;;;3.00;0.80;;;;;;;;;;5092545;28;20305;-70
2021/05/07 10:46:58;;;;;;;1.60;0.90;;;;;;;;;;5092497;28;20276;-70
2021/05/07 10:49:31;;;;;;;1.83;0.90;;;;;;;;;;5102989;28;20206;-70
2021/05/07 10:51:58;;;;;;;2.60;0.93;;;;;;;;;;5102776;28;20640;-71
2021/05/07 10:54:34;;;;;;;2.57;0.87;;;;;;;;;;5103408;28;20236;-72
2021/05/07 10:57:01;;;;;;;5.00;1.03;;;;;;;;;;5102728;28;20270;-72
2021/05/07 10:59:28;;;;;;;1.60;0.87;;;;;;;;;;5087168;28;20637;-72
2021/05/07 11:01:59;;;;;;;1.80;0.50;;;;;;;;;;5097591;28;20240;-72
2021/05/07 11:04:26;;;;;;;2.73;1.00;;;;;;;;;;5097394;28;20257;-74
2021/05/07 11:07:00;;;;;;;1.80;0.97;;;;;;;;;;5092453;28;20261;-73
2021/05/07 11:09:27;;;;;;;0.83;0.63;;;;;;;;;;5097107;28;20225;-72
2021/05/07 11:12:03;;;;;;;1.53;0.77;;;;;;;;;;5097454;28;20600;-70
2021/05/07 11:14:30;;;;;;;2.87;0.93;;;;;;;;;;5097059;28;20256;-73
2021/05/07 11:16:57;;;;;;;1.10;0.63;;;;;;;;;;5092734;28;20213;-72
2021/05/07 11:19:25;;;;;;;0.70;0.70;;;;;;;;;;5097329;28;20213;-73
2021/05/07 11:21:53;;;;;;;0.80;0.57;;;;;;;;;;5097278;28;20205;-72
2021/05/07 11:24:24;;;;;;;1.60;0.60;;;;;;;;;;5096946;28;20320;-72
2021/05/07 11:26:51;;;;;;;2.10;0.60;;;;;;;;;;5097096;28;20645;-73
2021/05/07 11:29:29;;;;;;;0.87;0.50;;;;;;;;;;5097162;28;20206;-73
2021/05/07 11:32:08;;;;;;;2.73;0.70;;;;;;;;;;5097370;28;20300;-73
2021/05/07 11:34:35;;;;;;;0.50;0.40;;;;;;;;;;5084936;28;20561;-72
2021/05/07 11:37:03;;;;;;;1.43;0.63;;;;;;;;;;5104398;28;20201;-72
2021/05/07 11:39:29;;;;;;;7.57;1.00;;;;;;;;;;5106527;28;20239;-73
2021/05/07 11:41:57;;;;;;;1.63;0.70;;;;;;;;;;5105557;28;20197;-72
2021/05/07 11:44:24;;;;;;;1.00;0.60;;;;;;;;;;5110141;28;20299;-72
2021/05/07 11:46:55;;;;;;;1.03;0.67;;;;;;;;;;5109303;28;20274;-69
2021/05/07 11:49:22;;;;;;;0.73;0.73;;;;;;;;;;5092186;28;20236;-69
2021/05/07 11:51:49;;;;;;;1.37;0.70;;;;;;;;;;5109956;28;20284;-69
2021/05/07 11:54:16;;;;;;;2.73;0.70;;;;;;;;;;5103687;28;20530;-68
2021/05/07 11:56:44;;;;;;;4.20;0.70;;;;;;;;;;5087884;28;20201;-68
2021/05/07 11:59:11;;;;;;;2.07;1.03;;;;;;;;;;5100410;28;20753;-68
2021/05/07 12:01:48;;;;;;;3.50;1.70;;;;;;;;;;5094425;28;20209;-66
2021/05/07 12:04:16;;;;;;;2.37;1.00;;;;;;;;;;5097174;28;20240;-68
2021/05/07 12:06:44;;;;;;;2.13;0.80;;;;;;;;;;5099284;28;20671;-73
2021/05/07 12:09:11;;;;;;;2.87;0.83;;;;;;;;;;5100081;28;20321;-72
2021/05/07 12:11:38;;;;;;;1.13;0.87;;;;;;;;;;5097207;28;20293;-74
2021/05/07 12:14:10;;;;;;;2.40;1.43;;;;;;;;;;5100734;28;20205;-73
2021/05/07 12:16:37;;;;;;;1.20;0.97;;;;;;;;;;5100281;28;20625;-73
2021/05/07 12:19:04;;;;;;;0.93;0.70;;;;;;;;;;5100446;28;20212;-73
2021/05/07 12:21:41;;;;;;;2.60;0.90;;;;;;;;;;5098918;28;20644;-72
2021/05/07 12:24:11;;;;;;;2.47;0.80;;;;;;;;;;5098780;28;20312;-73
2021/05/07 12:26:48;;;;;;;1.43;1.00;;;;;;;;;;5099109;28;20265;-73
2021/05/07 12:29:15;;;;;;;0.60;0.60;;;;;;;;;;5092479;28;20285;-72
2021/05/07 12:31:42;;;;;;;1.30;0.90;;;;;;;;;;5099608;28;20723;-73
2021/05/07 12:34:13;;;;;;;1.03;0.70;;;;;;;;;;5099589;28;20285;-72
2021/05/07 12:36:42;;;;;;;2.10;0.50;;;;;;;;;;5099839;28;20292;-73
2021/05/07 12:39:09;;;;;;;1.43;0.80;;;;;;;;;;5099371;28;20286;-73
2021/05/07 12:41:36;;;;;;;2.60;0.70;;;;;;;;;;5099755;28;20214;-72
2021/05/07 12:44:04;;;;;;;1.83;1.00;;;;;;;;;;5100048;28;20209;-72
2021/05/07 12:46:31;;;;;;;1.33;0.50;;;;;;;;;;5100092;28;20229;-72
2021/05/07 12:48:59;;;;;;;2.10;0.67;;;;;;;;;;5100024;28;20296;-72
2021/05/07 12:51:27;;;;;;;1.70;0.83;;;;;;;;;;5099929;28;20233;-72
2021/05/07 12:53:55;;;;;;;1.50;0.53;;;;;;;;;;5098913;28;20244;-72
2021/05/07 12:56:23;;;;;;;1.63;0.63;;;;;;;;;;5099421;28;20324;-71
2021/05/07 12:58:51;;;;;;;2.00;0.57;;;;;;;;;;5098994;28;20220;-71
2021/05/07 13:01:18;;;;;;;0.60;0.60;;;;;;;;;;5099441;28;20262;-71
2021/05/07 13:03:45;;;;;;;1.33;0.63;;;;;;;;;;5099274;28;20280;-72
2021/05/07 13:06:12;;;;;;;2.83;0.87;;;;;;;;;;5099301;28;20301;-70
2021/05/07 13:08:39;;;;;;;0.57;0.57;;;;;;;;;;5098508;28;20321;-71
2021/05/07 13:11:07;;;;;;;1.33;0.70;;;;;;;;;;5098923;28;20229;-71
2021/05/07 13:13:36;;;;;;;0.70;0.60;;;;;;;;;;5098262;28;20236;-70
2021/05/07 13:16:03;;;;;;;3.07;0.70;;;;;;;;;;5104245;28;20703;-71
2021/05/07 13:18:30;;;;;;;0.77;0.40;;;;;;;;;;5107992;28;20289;-71
2021/05/07 13:20:57;;;;;;;0.57;0.50;;;;;;;;;;5099533;28;20635;-70
2021/05/07 13:23:25;;;;;;;1.33;0.73;;;;;;;;;;5098490;28;20657;-71
2021/05/07 13:25:54;;;;;;;0.70;0.60;;;;;;;;;;5104360;28;20300;-71
2021/05/07 13:28:22;;;;;;;0.70;0.67;;;;;;;;;;5107382;28;20629;-71
2021/05/07 13:30:49;;;;;;;1.30;0.97;;;;;;;;;;5108405;28;20284;-71
2021/05/07 13:33:19;;;;;;;2.57;0.90;;;;;;;;;;5099305;28;20288;-71
2021/05/07 13:35:46;;;;;;;0.83;0.80;;;;;;;;;;5096873;28;20708;-71
2021/05/07 13:38:13;;;;;;;0.80;0.50;;;;;;;;;;5104414;28;20201;-72
2021/05/07 13:40:40;;;;;;;0.73;0.60;;;;;;;;;;5107883;28;20205;-69
2021/05/07 13:43:08;;;;;;;1.47;0.87;;;;;;;;;;5105630;28;20200;-74
2021/05/07 13:45:36;;;;;;;1.70;0.67;;;;;;;;;;5109861;28;20688;-73
2021/05/07 13:48:04;;;;;;;3.00;0.60;;;;;;;;;;5099157;28;20212;-74
2021/05/07 13:50:49;;;;;;;1.13;0.60;;;;;;;;;;5106273;28;20201;-73
2021/05/07 13:53:16;;;;;;;1.43;0.60;;;;;;;;;;5106902;28;20206;-73
2021/05/07 13:55:43;;;;;;;10.40;2.70;;;;;;;;;;5113229;28;20712;-68
2021/05/07 13:58:10;;;;;;;7.10;1.10;;;;;;;;;;5099205;28;20252;-73
2021/05/07 14:00:38;;;;;;;1.30;1.03;;;;;;;;;;5099089;28;20213;-73
2021/05/07 14:03:05;;;;;;;2.53;0.57;;;;;;;;;;5101329;28;20643;-72
2021/05/07 14:05:32;;;;;;;0.30;0.30;;;;;;;;;;5098485;28;20218;-72
2021/05/07 14:07:59;;;;;;;4.57;0.60;;;;;;;;;;5097893;28;20269;-74
2021/05/07 14:10:26;;;;;;;0.60;0.57;;;;;;;;;;5096815;28;20225;-72
2021/05/07 14:12:53;;;;;;;2.13;0.70;;;;;;;;;;5090112;28;20293;-73
2021/05/07 14:15:26;;;;;;;0.43;0.43;;;;;;;;;;5096435;28;20233;-73
2021/05/07 14:17:54;;;;;;;0.97;0.30;;;;;;;;;;5096643;28;20664;-74
2021/05/07 14:20:22;;;;;;;1.00;0.60;;;;;;;;;;5097094;28;20229;-74
2021/05/07 14:22:50;;;;;;;0.70;0.57;;;;;;;;;;5097302;28;20211;-73
2021/05/07 14:25:17;;;;;;;0.67;0.40;;;;;;;;;;5098336;28;20308;-73
2021/05/07 14:27:44;;;;;;;0.40;0.27;;;;;;;;;;5091763;28;20225;-73
2021/05/07 14:30:13;;;;;;;0.73;0.40;;;;;;;;;;5094955;28;20858;-73
2021/05/07 14:32:39;;;;;;;0.30;0.30;;;;;;;;;;5098476;28;20237;-73
2021/05/07 14:35:08;;;;;;;0.60;0.60;;;;;;;;;;5097904;28;20316;-73
2021/05/07 14:37:35;;;;;;;0.40;0.40;;;;;;;;;;5097898;28;20308;-73
2021/05/07 14:40:03;;;;;;;0.50;0.50;;;;;;;;;;5098191;28;20205;-73
2021/05/07 14:42:30;;;;;;;1.33;0.50;;;;;;;;;;5098040;28;20284;-73
2021/05/07 14:44:57;;;;;;;0.33;0.33;;;;;;;;;;5098016;28;20308;-73
2021/05/07 14:47:24;;;;;;;0.43;0.40;;;;;;;;;;5098254;28;20251;-73